Welcome to our Virtual Airline
Sign-in:

Flight MFC5291

  • Submitted By: Danny Rice
  • Departure Airport: Gustavus (PAGS)
  • Arrival Airport: Juneau Intl (PAJN)
  • Aircraft: BELL 407 (N020MM)
  • Flight Time: 00.52.00
  • Date Submitted: 2019/07/11
  • Route: STOP-OVER AT 1. EXCURSION INLET (EXI), 2. SISTERS ISLAND (SSR), 3. FUNTER BAY (FNR)
  • Status: Accepted
Flight Details
Gross Revenue:
(5 load / $ 40.00 per unit
$ 200.00
Fuel Cost:
(58.0598 fuel used @ 5.1 / unit)
$ 296.10

Additional Log Information:

View Log

FS[06:31] ----- Flight Opened -----
FS[06:31] Cigar Box - 1.1.4.0
FS[06:31] FS: Prepar3D V4
FS[06:31] FSUIPC: v5.151
FS[06:31] Flight Number: MFC5291
FS[06:31] FS Aircraft: Bell 407 N020MM
FS[06:31] FS Model: B407
FS[06:31] FS Type: Bell
FS[06:31] Departure: PAGS
FS[06:31] Arrival: PAJN
FS[06:31] Flight Level: 1500
FS[06:31] Flight Type: H
FS[06:31] Passengers: 5
FS[06:31] FOB: 703 lbs
FS[06:31] Gate: n/a
FS[06:31] NOTE: Parking Brake Ignored
FS[06:31] Crash Detection: Disabled
FS[06:31] Engines: 1 Helo
FS[06:31] NOTE: Boarding has started
FS[06:31] Engine 1: Started
FS[06:31] Light Data: Beacon ON
FS[06:31] Light Data: Landing lights ON
FS[06:31] Main Door Closed
FS[06:31] COM1: 128.30
FS[06:31] COM2: 127.80
FS[06:31] Transponder: 1200
FS[06:31] NAV1: 117.20
FS[06:31] NAV2: 110.60
FS[06:31] ADF1: 284.0
FS[06:31] ADF2: 240.0
FS[06:31] Navigation Mode: GPS
FS[06:31] Navigation Mode: GPS
FS[06:33] Light Data: Navigation ON
FS[06:35] NOTE: Taxi started
FS[06:35] NOTE: ----- TAKE OFF -----
FS[06:35] GS: 31 knots
FS[06:35] TAS: 30 knots
FS[06:35] IAS: 30 knots
FS[06:35] VS: 71 fpm
FS[06:35] FOB: 698 lbs
FS[06:35] Heading: 109°
FS[06:35] Pitch: 11°
FS[06:35] Bank: 1°
FS[06:35] Aircraft Weight: 3536.15 lbs
FS[06:35] Nearest Airport: PAGS
FS[06:35] Distance: 0.50 miles
FS[06:35] Runway: 11 - PAGS
FS[06:35] Ground Surface: Concrete
FS[06:35] Ground Condition: Normal
FS[06:35] NOTE: Weather Report
FS[06:35] Wind Heading: 337°
FS[06:35] Wind Speed: 0 knots
FS[06:35] OAT: 18° C
FS[06:35] TAT: 19° C
FS[06:35] Precipitation: None
FS[06:35] Dew Point: 11° C
FS[06:35] Visibility: 62 miles
FS[06:35] METAR: PAGS 111256Z AUTO 00000KT 10SM OVC010 13/12 A2998 RMK AO2 CIG 009V014 SLP151 T01330122
FS[06:35] Autopilot: Engaged
FS[06:35] AGL: 26 ft
FS[06:35] AMSL: 45 ft
FS[06:35] NOTE: Climb started
FS[06:35] View Mode: Virtual Cockpit
FS[06:36] NOTE: TOC reached
FS[06:36] NOTE: Cruise started
FS[06:36] GS: 79 knots
FS[06:36] TAS: 80 knots
FS[06:36] IAS: 78 knots
FS[06:36] VS: 199 fpm
FS[06:36] FOB: 694 lbs
FS[06:36] Heading: 112°
FS[06:36] Pitch: 0°
FS[06:36] Bank: 0°
FS[06:36] Aircraft Weight: 3532.19 lbs
FS[06:44] Autopilot: Disengaged
FS[06:44] AGL: 1085 ft
FS[06:44] AMSL: 1085 ft
FS[06:44] NOTE: TOD reached
FS[06:44] NOTE: Descent started
FS[06:44] GS: 97 knots
FS[06:44] TAS: 98 knots
FS[06:44] IAS: 97 knots
FS[06:44] VS: -405 fpm
FS[06:44] FOB: 675 lbs
FS[06:44] Heading: 347°
FS[06:44] Pitch: 1°
FS[06:44] Bank: 1°
FS[06:44] Aircraft Weight: 3513.73 lbs
FS[06:44] NOTE: On approach
FS[06:46] NOTE: ----- LANDED -----
FS[06:46] Landing Rate: -69.21 fpm
FS[06:46] GS: 0 knots
FS[06:46] TAS: 0 knots
FS[06:46] IAS: 0 knots
FS[06:46] VS: -72 fpm
FS[06:46] FOB: 670 lbs
FS[06:46] Heading: 39°
FS[06:46] Pitch: 5°
FS[06:46] Bank: 0°
FS[06:46] Aircraft Weight: 3509.08 lbs
FS[06:46] Nearest Airport: EXI
FS[06:46] Distance: 0.02 miles
FS[06:46] Runway: ???
FS[06:46] Ground Surface: Water
FS[06:46] Ground Condition: Normal
FS[06:46] NOTE: Weather Report
FS[06:46] Wind Heading: 337°
FS[06:46] Wind Speed: 0 knots
FS[06:46] OAT: 18° C
FS[06:46] TAT: 19° C
FS[06:46] Precipitation: None
FS[06:46] Dew Point: 11° C
FS[06:46] Visibility: 62 miles
FS[06:46] METAR: PAJN 111353Z 09008KT 10SM BKN042 OVC065 17/13 A2994 RMK AO2 SLP140 T01670128
FS[06:46] View Mode: Virtual Cockpit
FS[06:46] NOTE: Taxi started
FS[06:46] Autopilot: Engaged
FS[06:46] AGL: 167 ft
FS[06:46] AMSL: 167 ft
FS[06:47] View Mode: Virtual Cockpit
FS[06:54] Autopilot: Disengaged
FS[06:54] AGL: 1082 ft
FS[06:54] AMSL: 1082 ft
FS[06:57] NOTE: ----- LANDED -----
FS[06:57] Landing Rate: -30.76 fpm
FS[06:57] GS: 0 knots
FS[06:57] TAS: 0 knots
FS[06:57] IAS: 0 knots
FS[06:57] VS: -30 fpm
FS[06:57] FOB: 643 lbs
FS[06:57] Heading: 227°
FS[06:57] Pitch: 3°
FS[06:57] Bank: 0°
FS[06:57] Aircraft Weight: 3481.57 lbs
FS[06:57] Nearest Airport: SSR
FS[06:57] Distance: 0.06 miles
FS[06:57] Runway: ???
FS[06:57] Ground Surface: Concrete
FS[06:57] Ground Condition: Normal
FS[06:57] NOTE: Weather Report
FS[06:57] Wind Heading: 337°
FS[06:57] Wind Speed: 0 knots
FS[06:57] OAT: 18° C
FS[06:57] TAT: 18° C
FS[06:57] Precipitation: None
FS[06:57] Dew Point: 11° C
FS[06:57] Visibility: 62 miles
FS[06:57] METAR: PAJN 111353Z 09008KT 10SM BKN042 OVC065 17/13 A2994 RMK AO2 SLP140 T01670128
FS[06:57] View Mode: Virtual Cockpit
FS[07:01] Autopilot: Engaged
FS[07:01] AGL: 88 ft
FS[07:01] AMSL: 88 ft
FS[07:01] View Mode: Virtual Cockpit
FS[07:07] Autopilot: Disengaged
FS[07:07] AGL: 1089 ft
FS[07:07] AMSL: 1089 ft
FS[07:09] NOTE: ----- LANDED -----
FS[07:09] Landing Rate: -32.30 fpm
FS[07:09] GS: 0 knots
FS[07:09] TAS: 0 knots
FS[07:09] IAS: 0 knots
FS[07:09] VS: -32 fpm
FS[07:09] FOB: 615 lbs
FS[07:09] Heading: 247°
FS[07:09] Pitch: 0°
FS[07:09] Bank: 0°
FS[07:09] Aircraft Weight: 3453.19 lbs
FS[07:09] Nearest Airport: FNR
FS[07:09] Distance: 0.01 miles
FS[07:09] Runway: ???
FS[07:09] Ground Surface: Forest
FS[07:09] Ground Condition: Normal
FS[07:09] NOTE: Weather Report
FS[07:09] Wind Heading: 337°
FS[07:09] Wind Speed: 0 knots
FS[07:09] OAT: 18° C
FS[07:09] TAT: 19° C
FS[07:09] Precipitation: None
FS[07:09] Dew Point: 11° C
FS[07:09] Visibility: 62 miles
FS[07:09] METAR: PAJN 111353Z 09008KT 10SM BKN042 OVC065 17/13 A2994 RMK AO2 SLP140 T01670128
FS[07:09] View Mode: Virtual Cockpit
FS[07:09] Autopilot: Engaged
FS[07:09] AGL: 22 ft
FS[07:09] AMSL: 22 ft
FS[07:09] View Mode: Virtual Cockpit
FS[07:22] Autopilot: Disengaged
FS[07:22] AGL: 1043 ft
FS[07:22] AMSL: 1043 ft
FS[07:24] NOTE: ----- LANDED -----
FS[07:24] Landing Rate: -44.60 fpm
FS[07:24] GS: 0 knots
FS[07:24] TAS: 1 knots
FS[07:24] IAS: 1 knots
FS[07:24] VS: -43 fpm
FS[07:24] FOB: 575 lbs
FS[07:24] Heading: 356°
FS[07:24] Pitch: 0°
FS[07:24] Bank: 0°
FS[07:24] Aircraft Weight: 3413.96 lbs
FS[07:24] Nearest Airport: PAJN
FS[07:24] Distance: 0.43 miles
FS[07:24] Runway: ???
FS[07:24] Ground Surface: Concrete
FS[07:24] Ground Condition: Normal
FS[07:24] NOTE: Weather Report
FS[07:24] Wind Heading: 337°
FS[07:24] Wind Speed: 0 knots
FS[07:24] OAT: 18° C
FS[07:24] TAT: 18° C
FS[07:24] Precipitation: None
FS[07:24] Dew Point: 11° C
FS[07:24] Visibility: 62 miles
FS[07:24] METAR: PAJN 111353Z 09008KT 10SM BKN042 OVC065 17/13 A2994 RMK AO2 SLP140 T01670128
FS[07:24] View Mode: Virtual Cockpit
FS[07:25] Gate: 13 - PAJN
FS[07:25] NOTE: Flight Completed
FS[07:25] FS Aircraft: Bell 407 N020MM
FS[07:25] FS Model: B407
FS[07:25] FS Type: Bell
FS[07:25] FOB: 575 lbs
FS[07:25] Fuel Used: 128 lbs
FS[07:25] Flight Time: 00:52:00
FS[07:25] Flight Time (Dawn): 00:00:00
FS[07:25] Flight Time (Day): 00:52:00
FS[07:25] Flight Time (Dusk): 00:00:00
FS[07:25] Flight Time (Night): 00:00:00
FS[07:25] Total Landings: 4
FS[07:25] MaxSim Rate: 0x
FS[07:25] Cigar Box - 1.1.4.0
FS[07:25] ----- Flight Closed -----

Route Map